• Join FlightAware (Why Join?)
  • Login
  • US Flag 
06:00AM EDT


 

Airport Tracker/Info


-or-


 

Live Flight TrackerFlight Track Log ✈ UAL139 ✈ 05-Sep-2013 ✈ KDEN - RJAA / NRT

Flight Track Log - Related Links

Times and Time Zones

All times are in EDT time to prevent confusion due to time zone crossing. See the UAL139 flight status page for this flight to view local times or setup timezone preferences in your user account.

Time Position Orientation Groundspeed Altitude Reporting Facility
EDT Latitude Longitude Course Direction KTS MPH feet Rate Location/Type
03:30PM 39.8830 -104.6960 270° West 141 162 5,100  Level FlightAware
03:30PM 39.8640 -104.6970 182° South 206 237 5,100 720 Level FlightAware
03:31PM 39.8460 -104.6970 180° South 215 247 5,600 1,800 Climbing FlightAware
03:31PM 39.8280 -104.7000 187° South 222 255 6,200 1,800 Climbing FlightAware
03:31PM 39.8250 -104.7020 207° Southwest 224 258 6,300 900 Climbing FlightAware
03:31PM 39.8170 -104.7090 214° Southwest 234 269 6,400 780 Climbing FlightAware
03:31PM 39.8130 -104.7160 233° Southwest 241 277 6,500 1,200 Climbing FlightAware
03:31PM 39.8100 -104.7280 252° West 250 288 6,700 1,500 Climbing FlightAware
03:31PM 39.8090 -104.7350 259° West 255 293 6,800 1,200 Climbing FlightAware
03:32PM 39.8180 -104.7640 292° West 279 321 7,200 1,320 Climbing FlightAware
03:32PM 39.8320 -104.7850 311° West 292 336 7,600 1,980 Climbing FlightAware
03:32PM 39.8500 -104.8120 311° West 296 341 8,400 2,280 Climbing FlightAware
03:33PM 39.8740 -104.8410 317° Northwest 302 348 9,300 1,680 Climbing FlightAware
03:33PM 39.9010 -104.8560 337° Northwest 308 354 9,700 1,140 Climbing FlightAware
03:34PM 39.9500 -104.8790 340° North 336 387 10,400 1,260 Climbing FlightAware
03:34PM 39.9810 -104.8910 343° North 354 407 10,900 1,980 Climbing FlightAware
03:35PM 40.0510 -104.8940 358° North 366 421 12,500 2,340 Climbing FlightAware
03:35PM 40.1200 -104.8930 North 372 428 14,100 2,400 Climbing FlightAware
03:36PM 40.1900 -104.8920 North 377 434 15,700 2,340 Climbing FlightAware
03:37PM 40.2570 -104.8920 360° North 383 441 17,200 2,040 Climbing FlightAware
03:37PM 40.3280 -104.9040 353° North 392 451 18,400 1,800 Climbing FlightAware
03:38PM 40.3830 -104.9230 345° North 400 460 19,400 1,740 Climbing FlightAware
03:38PM 40.4490 -104.9410 348° North 411 473 20,400 1,680 Climbing FlightAware
03:39PM 40.5430 -104.9440 359° North 423 487 21,800 1,680 Climbing FlightAware
03:40PM 40.6220 -104.9430 North 431 496 22,900 1,620 Climbing FlightAware
03:41PM 40.7020 -104.9420 North 436 502 24,000 1,560 Climbing FlightAware
03:41PM 40.7750 -104.9430 359° North 441 507 24,900 1,500 Climbing FlightAware
03:42PM 40.8520 -104.9430 360° North 446 513 25,900 1,500 Climbing FlightAware
03:42PM 40.9400 -104.9430 360° North 452 520 26,900 1,380 Climbing FlightAware
03:43PM 41.0320 -104.9430 360° North 458 527 27,900 1,320 Climbing FlightAware
03:44PM 41.1270 -104.9420 360° North 465 535 28,900 1,320 Climbing FlightAware
03:45PM 41.2260 -104.9480 357° North 471 542 29,900 1,140 Climbing FlightAware
03:45PM 41.2990 -104.9790 342° North 472 543 30,500 1,080 Climbing FlightAware
03:46PM 41.3500 -105.0230 327° Northwest 471 542 31,100 1,260 Climbing FlightAware
03:46PM 41.4110 -105.1130 312° West 472 543 32,000 1,260 Climbing FlightAware
03:47PM 41.4570 -105.1870 310° West 473 544 32,700 1,140 Climbing FlightAware
03:48PM 41.5040 -105.2650 309° West 476 548 33,300 960 Climbing FlightAware
03:48PM 41.5490 -105.3400 309° West 481 554 33,800 420 Climbing FlightAware
03:49PM 41.5920 -105.4140 308° West 481 554 33,800  Level FlightAware
03:49PM 41.6340 -105.4860 308° West 481 554 33,800  Level FlightAware
03:50PM 41.6770 -105.5600 308° West 481 554 33,800  Level FlightAware
03:51PM 41.7200 -105.6330 308° West 481 554 33,800  Level FlightAware
03:51PM 41.7630 -105.7070 308° West 481 554 33,800 120 Level FlightAware
03:52PM 41.8530 -105.8520 310° West 481 554 34,000 120 Climbing FlightAware
03:52PM 41.8990 -105.9300 308° West 481 554 34,000  Level FlightAware
03:53PM 41.9400 -106.0030 307° West 481 554 34,000  Level FlightAware
03:54PM 42.0040 -106.1090 309° West 477 549 34,000  Level FlightAware
03:54PM 42.0480 -106.1850 308° West 477 549 34,000  Level FlightAware
03:55PM 42.0890 -106.2560 308° West 477 549 34,000 780 Level FlightAware
03:55PM 42.1570 -106.3720 308° West 488 562 35,000 960 Climbing FlightAware
03:56PM 42.2120 -106.4670 308° West 488 562 35,300 180 Climbing FlightAware
03:57PM 42.2560 -106.5430 308° West 488 562 35,300  Level FlightAware
03:57PM 42.3000 -106.6190 308° West 488 562 35,300 1,680 Level FlightAware
03:58PM 42.3730 -106.7490 307° West 475 547 37,600 1,740 Climbing FlightAware
03:59PM 42.4110 -106.8180 307° West 475 547 37,600  Level FlightAware
03:59PM 42.4520 -106.8900 308° West 475 547 37,600  Level FlightAware
04:00PM 42.4920 -106.9630 307° West 475 547 37,600  Level FlightAware
04:01PM 42.5330 -107.0360 307° West 475 547 37,600  Level FlightAware
04:01PM 42.5730 -107.1090 307° West 475 547 37,600  Level FlightAware
04:02PM 42.6150 -107.1840 307° West 475 547 37,600  Level FlightAware
04:02PM 42.6580 -107.2610 307° West 475 547 37,600  Level FlightAware
04:03PM 42.6970 -107.3320 307° West 475 547 37,600  Level FlightAware
04:04PM 42.7380 -107.4070 307° West 475 547 37,600  Level FlightAware
04:04PM 42.7790 -107.4800 307° West 475 547 37,600  Level FlightAware
04:05PM 42.8190 -107.5530 307° West 475 547 37,600  Level FlightAware
04:05PM 42.8620 -107.6310 307° West 475 547 37,600  Level FlightAware
04:06PM 42.9040 -107.7060 307° West 475 547 37,600  Level FlightAware
04:07PM 42.9440 -107.7790 307° West 475 547 37,600  Level FlightAware
04:07PM 42.9850 -107.8530 307° West 475 547 37,600 180 Level FlightAware
04:09PM 43.2100 -108.2500 307° West 482 555 38,000 120 Climbing Salt Lake Center
04:10PM 43.2900 -108.3978 307° West 484 557 38,000  Level Salt Lake Center
04:11PM 43.3714 -108.5458 307° West 487 560 38,000  Level Salt Lake Center
04:12PM 43.4514 -108.6958 306° West 486 559 38,000  Level Salt Lake Center
04:13PM 43.5472 -108.8758 306° West 486 559 38,000  Level Salt Lake Center
04:14PM 43.6281 -109.0283 306° West 490 564 38,000  Level Salt Lake Center
04:15PM 43.7092 -109.1822 306° West 493 567 38,000  Level Salt Lake Center
04:16PM 43.7892 -109.3339 306° West 492 566 38,000 -60 Level Salt Lake Center
04:17PM 43.8764 -109.4969 307° West 484 557 37,900  Descending Salt Lake Center
04:18PM 43.9553 -109.6483 306° West 485 558 38,000  Climbing Salt Lake Center
04:19PM 44.0339 -109.7997 306° West 486 559 38,000  Level Salt Lake Center
04:20PM 44.1122 -109.9519 306° West 487 560 38,000  Level Salt Lake Center
04:21PM 44.1914 -110.1053 306° West 490 564 38,000  Level Salt Lake Center
04:22PM 44.2847 -110.2883 306° West 485 558 38,000  Level Salt Lake Center
04:23PM 44.3614 -110.4422 305° West 484 557 38,000  Level Salt Lake Center
04:24PM 44.4419 -110.6025 305° West 492 566 38,000  Level Salt Lake Center
04:25PM 44.5208 -110.7608 305° West 488 562 38,000  Level Salt Lake Center
04:26PM 44.6056 -110.9308 305° West 485 558 38,000  Level Salt Lake Center
04:27PM 44.6847 -111.0897 305° West 486 559 38,000  Level Salt Lake Center
04:28PM 44.7631 -111.2508 304° West 489 563 38,000  Level Salt Lake Center
04:29PM 44.8414 -111.4089 305° West 485 558 38,000  Level Salt Lake Center
04:30PM 44.9192 -111.5692 304° West 486 559 38,000  Level Salt Lake Center
04:31PM 44.9967 -111.7308 304° West 487 560 38,000  Level Salt Lake Center
04:32PM 45.0731 -111.8906 304° West 483 556 38,000  Level Salt Lake Center
04:33PM 45.1500 -112.0500 304° West 482 555 38,000  Level Salt Lake Center
04:34PM 45.2342 -112.2269 304° West 489 563 38,000  Level Salt Lake Center
04:35PM 45.3106 -112.3900 304° West 488 562 38,000  Level Salt Lake Center
04:37PM 45.3869 -112.5542 304° West 489 563 38,000  Level Salt Lake Center
04:38PM 45.4653 -112.7186 304° West 490 564 38,000  Level Salt Lake Center
04:39PM 45.5422 -112.8847 304° West 493 567 38,000  Level Salt Lake Center
04:40PM 45.6203 -113.0517 304° West 496 571 38,000  Level Salt Lake Center
04:41PM 45.6961 -113.2194 303° West 496 571 38,000  Level Salt Lake Center
04:46PM 46.1200 -114.1560 303° West 38,000  Level FlightAware
04:49PM 46.2900 -114.5420 303° West 502 578 38,000  Level FlightAware
04:49PM 46.3390 -114.6540 302° West 505 581 38,000  Level FlightAware
04:50PM 46.3800 -114.7460 303° West 505 581 38,000  Level FlightAware
04:50PM 46.4200 -114.8350 303° West 505 581 38,000  Level FlightAware
04:51PM 46.4970 -115.0170 302° West 505 581 38,000  Level FlightAware
04:52PM 46.5360 -115.1040 303° West 505 581 38,000  Level FlightAware
04:53PM 46.5760 -115.1930 303° West 505 581 38,000  Level FlightAware
04:53PM 46.6140 -115.2810 302° West 505 581 38,000  Level FlightAware
04:54PM 46.6750 -115.4370 300° West 510 587 38,000  Level FlightAware
04:54PM 46.7140 -115.5270 302° West 510 587 38,000  Level FlightAware
04:55PM 46.7520 -115.6160 302° West 510 587 38,000  Level FlightAware
04:56PM 46.7900 -115.7050 302° West 510 587 38,000  Level FlightAware
04:56PM 46.8630 -115.8860 301° West 512 589 38,000  Level FlightAware
04:57PM 46.9090 -115.9950 302° West 513 590 38,000  Level FlightAware
04:58PM 46.9540 -116.1060 301° West 511 588 38,000  Level FlightAware
04:58PM 46.9980 -116.2080 302° West 511 588 38,000  Level FlightAware
04:59PM 47.0520 -116.3440 300° West 510 587 38,000  Level FlightAware
05:00PM 47.1070 -116.4780 301° West 511 588 38,000  Level FlightAware
05:00PM 47.1530 -116.5910 301° West 510 587 38,000  Level FlightAware
05:01PM 47.2050 -116.7210 301° West 508 585 38,000  Level FlightAware
05:02PM 47.2540 -116.8410 301° West 511 588 38,000  Level FlightAware
05:02PM 47.3020 -116.9610 301° West 510 587 38,000  Level FlightAware
05:03PM 47.3540 -117.0910 301° West 510 587 38,000  Level FlightAware
05:04PM 47.4090 -117.2310 300° West 512 589 38,000  Level FlightAware
05:04PM 47.4450 -117.3220 300° West 514 592 38,000  Level FlightAware
05:05PM 47.4930 -117.4430 300° West 514 592 38,000  Level FlightAware
05:06PM 47.5310 -117.5400 300° West 515 593 38,000  Level FlightAware
05:06PM 47.5820 -117.6710 300° West 516 594 38,000  Level FlightAware
05:07PM 47.6250 -117.7760 301° West 518 596 38,000  Level FlightAware
05:07PM 47.6690 -117.8840 301° West 519 597 38,000  Level FlightAware
05:08PM 47.7110 -117.9880 301° West 520 598 38,000  Level FlightAware
05:09PM 47.7550 -118.0970 301° West 521 600 38,000  Level FlightAware
05:09PM 47.7980 -118.2050 301° West 521 600 38,000  Level FlightAware
05:10PM 47.8410 -118.3120 301° West 522 601 38,000  Level FlightAware
05:10PM 47.8830 -118.4200 300° West 522 601 38,000  Level FlightAware
05:11PM 47.9020 -118.4680 301° West 523 602 38,000  Level FlightAware
05:11PM 47.9528 -118.5960 301° West 522 601 38,000  Level FlightAware ADS-B
05:12PM 48.0033 -118.7250 300° West 521 600 38,000  Level FlightAware ADS-B
05:12PM 48.0401 -118.8190 300° West 519 597 38,000  Level FlightAware ADS-B
05:13PM 48.0796 -118.9200 300° West 519 597 38,000  Level FlightAware ADS-B
05:14PM 48.1300 -119.0510 300° West 522 601 38,000  Level FlightAware ADS-B
05:14PM 48.1661 -119.1440 300° West 521 600 38,000  Level FlightAware ADS-B
05:15PM 48.2042 -119.2430 300° West 519 597 38,000  Level FlightAware ADS-B
05:15PM 48.2405 -119.3380 300° West 520 598 38,000  Level FlightAware ADS-B
05:16PM 48.2775 -119.4350 300° West 521 600 38,000  Level FlightAware ADS-B
05:16PM 48.3161 -119.5360 300° West 520 598 38,000  Level FlightAware ADS-B
05:17PM 48.3519 -119.6310 300° West 519 597 38,000  Level FlightAware ADS-B
05:17PM 48.3883 -119.7270 300° West 519 597 38,000  Level FlightAware ADS-B
05:18PM 48.4272 -119.8310 299° West 520 598 38,000  Level FlightAware ADS-B
05:18PM 48.4634 -119.9270 300° West 518 596 38,000  Level FlightAware ADS-B
05:19PM 48.5008 -120.0280 299° West 517 595 38,000  Level FlightAware ADS-B
05:19PM 48.5358 -120.1220 299° West 517 595 38,000  Level FlightAware ADS-B
05:20PM 48.5725 -120.2210 299° West 517 595 38,000  Level FlightAware ADS-B
05:20PM 48.6089 -120.3190 299° West 515 593 38,000  Level FlightAware ADS-B
05:21PM 48.6448 -120.4170 299° West 513 590 38,000  Level FlightAware ADS-B
05:21PM 48.6804 -120.5140 299° West 514 592 38,000  Level FlightAware ADS-B
05:22PM 48.7148 -120.6080 299° West 514 592 38,000  Level FlightAware ADS-B
05:22PM 48.7493 -120.7030 299° West 513 590 38,000  Level FlightAware ADS-B
05:23PM 48.7874 -120.8090 299° West 516 594 38,000  Level FlightAware ADS-B
05:24PM 48.8256 -120.9140 299° West 515 593 38,000  Level FlightAware ADS-B
05:24PM 48.8636 -121.0250 298° West 514 592 38,000  Level FlightAware ADS-B
05:25PM 48.8982 -121.1330 296° West 513 590 38,000  Level FlightAware ADS-B
05:25PM 48.9328 -121.2420 296° West 513 590 38,000  Level FlightAware ADS-B
05:26PM 48.9647 -121.3410 296° West 514 592 38,000  Level FlightAware ADS-B
05:26PM 48.9962 -121.4390 296° West 515 593 38,000  Level FlightAware ADS-B
05:27PM 49.0277 -121.5380 296° West 514 592 38,000  Level FlightAware ADS-B
05:27PM 49.0592 -121.6360 296° West 514 592 38,000  Level FlightAware ADS-B
05:28PM 49.0911 -121.7360 296° West 516 594 38,000  Level FlightAware ADS-B
05:28PM 49.1225 -121.8350 296° West 517 595 38,000  Level FlightAware ADS-B
05:29PM 49.1548 -121.9370 296° West 518 596 38,000  Level FlightAware ADS-B
05:29PM 49.1862 -122.0370 296° West 520 598 38,000  Level FlightAware ADS-B
05:30PM 49.2175 -122.1370 296° West 521 600 38,000  Level FlightAware ADS-B
05:30PM 49.2489 -122.2380 295° West 520 598 38,000  Level FlightAware ADS-B
05:31PM 49.2822 -122.3450 296° West 519 597 38,000  Level FlightAware ADS-B
05:31PM 49.3160 -122.4540 295° West 519 597 38,000  Level FlightAware ADS-B
05:32PM 49.3473 -122.5560 295° West 520 598 38,000  Level FlightAware ADS-B
05:32PM 49.3790 -122.6590 295° West 518 596 38,000  Level FlightAware
05:33PM 49.4088 -122.7570 295° West 523 602 38,000  Level FlightAware ADS-B
05:33PM 49.4396 -122.8580 295° West 527 606 38,000  Level FlightAware ADS-B
05:34PM 49.4707 -122.9620 295° West 528 608 38,000  Level FlightAware ADS-B
05:34PM 49.5023 -123.0660 295° West 528 608 38,000  Level FlightAware ADS-B
05:35PM 49.5337 -123.1710 295° West 528 608 38,000  Level FlightAware ADS-B
05:36PM 49.5818 -123.3320 295° West 531 611 38,000  Level FlightAware ADS-B
05:36PM 49.6131 -123.4380 295° West 531 611 38,000  Level FlightAware ADS-B
05:37PM 49.6595 -123.5950 295° West 530 610 38,000  Level FlightAware ADS-B
05:38PM 49.7010 -123.7350 295° West 530 610 38,000  Level FlightAware
05:38PM 49.7131 -123.7780 294° West 531 611 38,000  Level FlightAware ADS-B
05:38PM 49.7436 -123.8830 294° West 530 610 38,000  Level FlightAware ADS-B
05:39PM 49.7742 -123.9880 294° West 528 608 38,000  Level FlightAware ADS-B
05:39PM 49.8065 -124.1000 294° West 526 605 38,000  Level FlightAware ADS-B
05:40PM 49.8366 -124.2050 294° West 525 604 38,000  Level FlightAware ADS-B
05:41PM 49.8685 -124.3160 294° West 525 604 38,000 60 Level FlightAware ADS-B
05:41PM 49.9117 -124.4680 294° West 519 597 38,100 780 Climbing FlightAware ADS-B
05:42PM 49.9480 -124.5970 294° West 503 579 39,100 1,260 Climbing FlightAware
05:43PM 49.9820 -124.7160 294° West 500 575 39,700 660 Climbing FlightAware
05:43PM 50.0140 -124.8310 293° West 502 578 39,900 240 Climbing FlightAware
05:44PM 50.0460 -124.9470 293° West 505 581 40,000 60 Climbing FlightAware
05:44PM 50.0750 -125.0510 294° West 508 585 40,000  Level FlightAware
05:45PM 50.1090 -125.1740 293° West 513 590 40,000  Level FlightAware
05:45PM 50.1420 -125.2950 293° West 516 594 40,000  Level FlightAware
05:46PM 50.1750 -125.4170 293° West 518 596 40,000  Level FlightAware
05:47PM 50.2050 -125.5250 293° West 519 597 40,000  Level FlightAware
05:47PM 50.2400 -125.6550 293° West 518 596 40,000  Level FlightAware
05:48PM 50.2660 -125.7530 293° West 515 593 40,000  Level FlightAware
05:48PM 50.3100 -125.9150 293° West 508 585 40,000  Level FlightAware
05:49PM 50.3390 -126.0250 292° West 509 586 40,000  Level FlightAware
05:50PM 50.3690 -126.1400 292° West 508 585 40,000  Level FlightAware
05:50PM 50.4040 -126.2720 293° West 505 581 40,000  Level FlightAware
05:51PM 50.4460 -126.4310 293° West 506 582 40,000  Level FlightAware
05:52PM 50.4890 -126.5940 293° West 505 581 40,000  Level FlightAware
05:53PM 50.5260 -126.7400 292° West 503 579 40,000  Level FlightAware
05:53PM 50.5620 -126.8830 292° West 501 577 40,000  Level FlightAware
05:54PM 50.5970 -127.0190 292° West 499 574 40,000  Level FlightAware
05:55PM 50.6330 -127.1600 292° West 499 574 40,000  Level FlightAware
05:56PM 50.6790 -127.3410 292° West 495 570 40,000  Level FlightAware
05:56PM 50.7180 -127.5120 290° West 495 570 40,000  Level FlightAware
05:57PM 50.7440 -127.6150 292° West 495 570 40,000  Level FlightAware
05:58PM 50.7650 -127.7630 283° West 497 572 40,000  Level FlightAware
05:58PM 50.7860 -127.8690 287° West 497 572 40,000  Level FlightAware
05:59PM 50.8080 -127.9750 288° West 497 572 40,000  Level FlightAware
05:59PM 50.8360 -128.1270 286° West 493 567 40,000  Level FlightAware
06:00PM 50.8590 -128.2440 287° West 493 567 40,000  Level FlightAware
06:01PM 50.8810 -128.3490 288° West 493 567 40,000  Level FlightAware
06:01PM 50.9040 -128.4600 288° West 493 567 40,000  Level FlightAware
06:02PM 50.9250 -128.5650 288° West 493 567 40,000  Level FlightAware
06:02PM 50.9480 -128.6760 288° West 493 567 40,000  Level FlightAware
06:03PM 50.9680 -128.7760 288° West 493 567 40,000  Level FlightAware
06:04PM 50.9900 -128.8810 288° West 493 567 40,000  Level FlightAware
06:04PM 51.0120 -128.9870 288° West 493 567 40,000  Level FlightAware
06:05PM 51.0340 -129.0950 288° West 493 567 40,000  Level FlightAware
06:05PM 51.0550 -129.2010 288° West 493 567 40,000  Level FlightAware
06:06PM 51.0770 -129.3070 288° West 493 567 40,000  Level FlightAware
06:07PM 51.0980 -129.4120 288° West 493 567 40,000  Level FlightAware
06:07PM 51.1200 -129.5180 288° West 493 567 40,000  Level FlightAware
06:08PM 51.1420 -129.6270 288° West 493 567 40,000  Level FlightAware
06:08PM 51.1640 -129.7330 288° West 493 567 40,000  Level FlightAware
06:09PM 51.1850 -129.8380 288° West 493 567 40,000  Level FlightAware
06:11PM 51.2333 -130.4500 288° West 480 552 40,000  Level Vancouver Center
06:12PM 51.2833 -130.6333 294° West 480 552 40,000  Level Vancouver Center
06:13PM 51.3167 -130.8500 284° West 480 552 40,000  Level Vancouver Center
06:14PM 51.3333 -131.0500 278° West 480 552 40,000  Level Vancouver Center
06:15PM 51.3833 -131.2500 292° West 470 541 40,000  Level Vancouver Center
06:16PM 51.4167 -131.4333 286° West 470 541 40,000  Level Vancouver Center
06:17PM 51.4500 -131.6500 284° West 470 541 40,000  Level Vancouver Center
06:18PM 51.4667 -131.8833 277° West 480 552 40,000  Level Vancouver Center
06:19PM 51.5000 -132.0667 286° West 470 541 40,000  Level Vancouver Center
06:20PM 51.5333 -132.2667 285° West 480 552 40,000  Level Vancouver Center
06:21PM 51.5667 -132.4833 284° West 480 552 40,000  Level Vancouver Center
06:22PM 51.6000 -132.6833 285° West 480 552 40,000  Level Vancouver Center
06:23PM 51.6333 -132.9000 284° West 480 552 40,000  Level Vancouver Center
06:24PM 51.6667 -133.1000 285° West 470 541 40,000  Level Vancouver Center
06:25PM 51.7000 -133.3000 285° West 480 552 40,000  Level Vancouver Center
06:26PM 51.7167 -133.5167 277° West 470 541 40,000  Level Vancouver Center
06:27PM 51.7500 -133.7167 285° West 480 552 40,000  Level Vancouver Center
06:28PM 51.7833 -133.9333 284° West 470 541 40,000  Level Vancouver Center
06:29PM 51.8167 -134.1333 285° West 460 529 40,000  Level Vancouver Center
06:30PM 51.8333 -134.3333 278° West 470 541 40,000  Level Vancouver Center
06:31PM 51.8500 -134.5500 277° West 470 541 40,000  Level Vancouver Center
06:32PM 51.8833 -134.7500 285° West 470 541 40,000  Level Vancouver Center
06:33PM 51.9000 -134.9500 278° West 470 541 40,000  Level Vancouver Center
06:34PM 51.9333 -135.1667 284° West 470 541 40,000  Level Vancouver Center
06:35PM 51.9667 -135.3667 285° West 470 541 40,000  Level Vancouver Center
06:35PM 52.0000 -135.4500 272° West 466 536 40,000  Level Oakland Oceanic (ODAPS)
06:37PM 51.9833 -135.7833 272° West 470 541 40,000  Level Vancouver Center
06:38PM 51.9833 -136.0167 270° West 470 541 40,000  Level Vancouver Center
06:39PM 51.9833 -136.2333 270° West 470 541 40,000  Level Vancouver Center
06:40PM 52.0000 -136.4167 278° West 470 541 40,000  Level Vancouver Center
06:41PM 51.9833 -136.6333 263° West 460 529 40,000  Level Vancouver Center
06:41PM 52.0167 -136.7167 271° West 461 531 40,000  Level Oakland Oceanic (ODAPS)
06:43PM 51.9833 -137.0500 271° West 470 541 40,000  Level Vancouver Center
06:44PM 52.0000 -137.2667 277° West 460 529 40,000  Level Vancouver Center
06:45PM 52.0000 -137.5000 270° West 480 552 40,000  Level Vancouver Center
06:46PM 52.0020 -137.7085 271° West  Level FlightAware Approximate
06:47PM 51.9833 -138.0667 271° West 540 621 40,000  Level Vancouver Center
06:48PM 52.0000 -138.2667 278° West 460 529 40,000  Level Vancouver Center
06:49PM 51.9833 -138.4833 263° West 460 529 40,000  Level Vancouver Center
06:51PM 51.9873 -138.7264 272° West  Level FlightAware Approximate
06:55PM 52.0000 -139.5667 270° West 446 513 40,000  Level Oakland Oceanic (ODAPS)
06:57PM 52.0000 -140.0000 274° West 452 520 40,000  Level Oakland Oceanic (ODAPS)
06:58PM 52.0070 -140.1865 274° West  Level FlightAware Approximate
06:59PM 52.0144 -140.3947 273° West  Level FlightAware Approximate
07:00PM 52.0215 -140.6030 273° West  Level FlightAware Approximate
07:01PM 52.0282 -140.8113 273° West  Level FlightAware Approximate
07:01PM 52.0333 -140.8333 273° West 441 507 40,000  Level Oakland Oceanic (ODAPS)
07:02PM 52.0330 -140.8490 273° West 446 513 40,000  Level FlightAware Transoceanic
07:03PM 52.0402 -141.0615 273° West 446 513 40,000  Level FlightAware Transoceanic
07:04PM 52.0455 -141.2219 273° West 452 520 40,000  Level FlightAware Transoceanic
07:05PM 52.0518 -141.4258 273° West 452 520 40,000  Level FlightAware Transoceanic
07:06PM 52.0578 -141.6297 273° West 452 520 40,000  Level FlightAware Transoceanic
07:07PM 52.0635 -141.8337 272° West 452 520 40,000  Level FlightAware Transoceanic
07:08PM 52.0693 -142.0277 272° West 441 507 40,000  Level FlightAware Transoceanic
07:09PM 52.0742 -142.2270 272° West 441 507 40,000  Level FlightAware Transoceanic
07:09PM 52.0833 -142.3333 272° West 444 511 40,000  Level Oakland Oceanic (ODAPS)
07:10PM 52.0787 -142.4262 272° West 441 507 40,000  Level FlightAware Transoceanic
07:11PM 52.0828 -142.6255 272° West 441 507 40,000  Level FlightAware Transoceanic
07:12PM 52.0866 -142.8249 272° West 441 507 40,000  Level FlightAware Transoceanic
07:13PM 52.0901 -143.0243 272° West 441 507 40,000  Level FlightAware Transoceanic
07:14PM 52.0933 -143.2237 271° West 441 507 40,000  Level FlightAware Transoceanic
07:15PM 52.1029 -143.5134 271° West 444 511 40,000  Level FlightAware Transoceanic
07:16PM 52.1050 -143.7102 271° West 444 511 40,000  Level FlightAware Transoceanic
07:17PM 52.1068 -143.9070 271° West 444 511 40,000  Level FlightAware Transoceanic
07:18PM 52.1083 -144.1037 271° West 444 511 40,000  Level FlightAware Transoceanic
07:19PM 52.1094 -144.3006 270° West 444 511 40,000  Level FlightAware Transoceanic
07:20PM 52.1102 -144.4974 270° West 444 511 40,000  Level FlightAware Transoceanic
07:21PM 52.1107 -144.6942 270° West 444 511 40,000  Level FlightAware Transoceanic
07:22PM 52.1109 -144.8910 270° West 444 511 40,000  Level FlightAware Transoceanic
07:23PM 52.1107 -145.0878 270° West 444 511 40,000  Level FlightAware Transoceanic
07:23PM 52.1000 -145.0667 270° West 438 504 40,000  Level Oakland Oceanic (ODAPS)
07:24PM 52.1102 -145.2847 270° West 444 511 40,000  Level FlightAware Transoceanic
07:25PM 52.1094 -145.4815 270° West 444 511 40,000  Level FlightAware Transoceanic
07:26PM 52.1082 -145.6783 269° West 444 511 40,000  Level FlightAware Transoceanic
07:27PM 52.1067 -145.8751 269° West 444 511 40,000  Level FlightAware Transoceanic
07:28PM 52.1049 -146.0719 269° West 444 511 40,000  Level FlightAware Transoceanic
07:29PM 52.0948 -146.2523 269° West 438 504 40,000  Level FlightAware Transoceanic
07:30PM 52.0928 -146.4499 269° West 438 504 40,000  Level FlightAware Transoceanic
07:31PM 52.0904 -146.6474 269° West 438 504 40,000  Level FlightAware Transoceanic
07:32PM 52.0877 -146.8450 269° West 438 504 40,000  Level FlightAware Transoceanic
07:33PM 52.0847 -147.0425 268° West 438 504 40,000  Level FlightAware Transoceanic
07:34PM 52.0814 -147.2399 268° West 438 504 40,000  Level FlightAware Transoceanic
07:35PM 52.0777 -147.4374 268° West 438 504 40,000  Level FlightAware Transoceanic
07:36PM 52.0737 -147.6348 268° West 438 504 40,000  Level FlightAware Transoceanic
07:37PM 52.0694 -147.8322 268° West 438 504 40,000  Level FlightAware Transoceanic
07:37PM 52.0667 -147.8167 268° West 441 507 40,000  Level Oakland Oceanic (ODAPS)
07:38PM 52.0647 -148.0295 268° West 438 504 40,000  Level FlightAware Transoceanic
07:39PM 52.0597 -148.2268 268° West 438 504 40,000  Level FlightAware Transoceanic
07:40PM 52.0544 -148.4240 267° West 438 504 40,000  Level FlightAware Transoceanic
07:41PM 52.0488 -148.6212 267° West 438 504 40,000  Level FlightAware Transoceanic
07:42PM 52.0428 -148.8184 267° West 438 504 40,000  Level FlightAware Transoceanic
07:43PM 52.0353 -149.0084 267° West 441 507 40,000  Level FlightAware Transoceanic
07:44PM 52.0289 -149.2068 267° West 441 507 40,000  Level FlightAware Transoceanic
07:45PM 52.0222 -149.4052 267° West 441 507 40,000  Level FlightAware Transoceanic
07:46PM 52.0151 -149.6035 267° West 441 507 40,000  Level FlightAware Transoceanic
07:47PM 52.0077 -149.8018 266° West 441 507 40,000  Level FlightAware Transoceanic
07:48PM 52.0000 -150.0000 265° West 441 507 40,000  Level FlightAware Transoceanic
07:48PM 52.0000 -150.0000 265° West 443 510 40,000  Level Oakland Oceanic (ODAPS)
07:49PM 51.9879 -150.2122 265° West 441 507 40,000  Level FlightAware Transoceanic
07:50PM 51.9755 -150.4244 264° West 441 507 40,000  Level FlightAware Transoceanic
07:51PM 51.9627 -150.6364 264° West 441 507 40,000  Level FlightAware Transoceanic
07:51PM 51.9667 -150.5500 264° West 446 513 40,000  Level Oakland Oceanic (ODAPS)
07:52PM 51.9495 -150.8483 264° West 441 507 40,000  Level FlightAware Transoceanic
07:53PM 51.9359 -151.0600 264° West 441 507 40,000  Level FlightAware Transoceanic
07:54PM 51.9269 -151.1970 264° West 443 510 40,000  Level FlightAware Transoceanic
07:55PM 51.9136 -151.3961 264° West 443 510 40,000  Level FlightAware Transoceanic
07:56PM 51.8999 -151.5951 264° West 443 510 40,000  Level FlightAware Transoceanic
07:57PM 51.8878 -151.7512 263° West 446 513 40,000  Level FlightAware Transoceanic
07:58PM 51.8734 -151.9510 263° West 446 513 40,000  Level FlightAware Transoceanic
07:59PM 51.8587 -152.1506 263° West 446 513 40,000  Level FlightAware Transoceanic
08:00PM 51.8437 -152.3501 263° West 446 513 40,000  Level FlightAware Transoceanic
08:01PM 51.8284 -152.5495 263° West 446 513 40,000  Level FlightAware Transoceanic
08:02PM 51.8127 -152.7488 263° West 446 513 40,000  Level FlightAware Transoceanic
08:03PM 51.7967 -152.9479 263° West 446 513 40,000  Level FlightAware Transoceanic
08:04PM 51.7803 -153.1468 262° West 446 513 40,000  Level FlightAware Transoceanic
08:05PM 51.7636 -153.3457 262° West 446 513 40,000  Level FlightAware Transoceanic
08:05PM 51.7667 -153.3667 262° West 460 529 40,000  Level Oakland Oceanic (ODAPS)
08:06PM 51.7466 -153.5443 262° West 446 513 40,000  Level FlightAware Transoceanic
08:07PM 51.7292 -153.7428 262° West 446 513 40,000  Level FlightAware Transoceanic
08:08PM 51.7115 -153.9412 262° West 446 513 40,000  Level FlightAware Transoceanic
08:09PM 51.6935 -154.1394 262° West 446 513 40,000  Level FlightAware Transoceanic
08:10PM 51.6751 -154.3374 261° West 446 513 40,000  Level FlightAware Transoceanic
08:11PM 51.6553 -154.5885 261° West 460 529 40,000  Level FlightAware Transoceanic
08:12PM 51.6355 -154.7915 261° West 460 529 40,000  Level FlightAware Transoceanic
08:13PM 51.6154 -154.9944 261° West 460 529 40,000  Level FlightAware Transoceanic
08:14PM 51.5949 -155.1971 261° West 460 529 40,000  Level FlightAware Transoceanic
08:15PM 51.5741 -155.3996 261° West 460 529 40,000  Level FlightAware Transoceanic
08:16PM 51.5529 -155.6019 260° West 460 529 40,000  Level FlightAware Transoceanic
08:17PM 51.5313 -155.8040 260° West 460 529 40,000  Level FlightAware Transoceanic
08:18PM 51.5095 -156.0060 260° West 460 529 40,000  Level FlightAware Transoceanic
08:18PM 51.4833 -156.2167 260° West 470 541 40,000  Level Oakland Oceanic (ODAPS)
08:19PM 51.4872 -156.2077 260° West 460 529 40,000  Level FlightAware Transoceanic
08:20PM 51.4647 -156.4092 260° West 460 529 40,000  Level FlightAware Transoceanic
08:21PM 51.4417 -156.6105 260° West 460 529 40,000  Level FlightAware Transoceanic
08:22PM 51.4185 -156.8117 259° West 460 529 40,000  Level FlightAware Transoceanic
08:23PM 51.3949 -157.0126 259° West 460 529 40,000  Level FlightAware Transoceanic
08:24PM 51.3709 -157.2133 259° West 460 529 40,000  Level FlightAware Transoceanic
08:25PM 51.3358 -157.4865 259° West 470 541 40,000  Level FlightAware Transoceanic
08:26PM 51.3099 -157.6973 259° West 470 541 40,000  Level FlightAware Transoceanic
08:27PM 51.2836 -157.9079 259° West 470 541 40,000  Level FlightAware Transoceanic
08:28PM 51.2569 -158.1183 258° West 470 541 40,000  Level FlightAware Transoceanic
08:29PM 51.2299 -158.3284 258° West 470 541 40,000  Level FlightAware Transoceanic
08:30PM 51.2024 -158.5382 258° West 470 541 40,000  Level FlightAware Transoceanic
08:31PM 51.1746 -158.7478 258° West 470 541 40,000  Level FlightAware Transoceanic
08:32PM 51.1465 -158.9572 258° West 470 541 40,000  Level FlightAware Transoceanic
08:32PM 51.1333 -159.0333 258° West 478 550 40,000  Level Oakland Oceanic (ODAPS)
08:33PM 51.1179 -159.1663 258° West 470 541 40,000  Level FlightAware Transoceanic
08:34PM 51.0890 -159.3751 257° West 470 541 40,000  Level FlightAware Transoceanic
08:35PM 51.0597 -159.5837 257° West 470 541 40,000  Level FlightAware Transoceanic
08:36PM 51.0300 -159.7920 257° West 470 541 40,000  Level FlightAware Transoceanic
08:37PM 51.0000 -160.0000 257° West 470 541 40,000  Level FlightAware Transoceanic
08:37PM 51.0000 -160.0000 257° West 469 540 40,000  Level Oakland Oceanic (ODAPS)
08:38PM 50.9698 -160.1998 256° West 470 541 40,000  Level FlightAware Transoceanic
08:39PM 50.9393 -160.3993 256° West 478 550 40,000  Level FlightAware Transoceanic
08:40PM 50.9085 -160.5986 256° West 478 550 40,000  Level FlightAware Transoceanic
08:41PM 50.8773 -160.7976 256° West 478 550 40,000  Level FlightAware Transoceanic
08:42PM 50.8458 -160.9963 256° West 478 550 40,000  Level FlightAware Transoceanic
08:43PM 50.8140 -161.1948 256° West 469 540 40,000  Level FlightAware Transoceanic
08:44PM 50.7818 -161.3930 256° West 469 540 40,000  Level FlightAware Transoceanic
08:45PM 50.7492 -161.5909 255° West 469 540 40,000  Level FlightAware Transoceanic
08:46PM 50.7164 -161.7885 255° West 469 540 40,000  Level FlightAware Transoceanic
08:46PM 50.7000 -161.8500 255° West 474 545 40,000  Level Oakland Oceanic (ODAPS)
08:47PM 50.6832 -161.9859 255° West 469 540 40,000  Level FlightAware Transoceanic
08:48PM 50.6497 -162.1830 255° West 469 540 40,000  Level FlightAware Transoceanic
08:49PM 50.6158 -162.3798 255° West 469 540 40,000  Level FlightAware Transoceanic
08:50PM 50.5816 -162.5763 255° West 469 540 40,000  Level FlightAware Transoceanic
08:51PM 50.5471 -162.7725 254° West 469 540 40,000  Level FlightAware Transoceanic
08:52PM 50.5123 -162.9685 254° West 469 540 40,000  Level FlightAware Transoceanic
08:53PM 50.4569 -163.2473 254° West 474 545 40,000  Level FlightAware Transoceanic
08:54PM 50.4208 -163.4457 254° West 474 545 40,000  Level FlightAware Transoceanic
08:55PM 50.3844 -163.6438 254° West 474 545 40,000  Level FlightAware Transoceanic
08:56PM 50.3477 -163.8416 254° West 474 545 40,000  Level FlightAware Transoceanic
08:57PM 50.3106 -164.0391 254° West 474 545 40,000  Level FlightAware Transoceanic
08:58PM 50.2732 -164.2363 253° West 474 545 40,000  Level FlightAware Transoceanic
08:59PM 50.2354 -164.4332 253° West 474 545 40,000  Level FlightAware Transoceanic
09:00PM 50.1973 -164.6297 253° West 474 545 40,000  Level FlightAware Transoceanic
09:00PM 50.2000 -164.6000 253° West 476 548 40,000  Level Oakland Oceanic (ODAPS)
09:01PM 50.1589 -164.8260 253° West 474 545 40,000  Level FlightAware Transoceanic
09:02PM 50.1201 -165.0219 253° West 474 545 40,000  Level FlightAware Transoceanic
09:03PM 50.0810 -165.2175 253° West 474 545 40,000  Level FlightAware Transoceanic
09:04PM 50.0416 -165.4128 252° West 474 545 40,000  Level FlightAware Transoceanic
09:05PM 50.0019 -165.6078 252° West 474 545 40,000  Level FlightAware Transoceanic
09:06PM 49.9642 -165.7793 252° West 476 548 40,000  Level FlightAware Transoceanic
09:07PM 49.9237 -165.9747 252° West 476 548 40,000  Level FlightAware Transoceanic
09:08PM 49.8829 -166.1698 252° West 476 548 40,000  Level FlightAware Transoceanic
09:09PM 49.8418 -166.3645 252° West 476 548 40,000  Level FlightAware Transoceanic
09:10PM 49.8004 -166.5589 252° West 476 548 40,000  Level FlightAware Transoceanic
09:11PM 49.7586 -166.7530 251° West 476 548 40,000  Level FlightAware Transoceanic
09:12PM 49.7165 -166.9468 251° West 476 548 40,000  Level FlightAware Transoceanic
09:13PM 49.6741 -167.1402 251° West 476 548 40,000  Level FlightAware Transoceanic
09:14PM 49.6314 -167.3333 251° West 476 548 40,000  Level FlightAware Transoceanic
09:14PM 49.6500 -167.2833 251° West 474 545 40,000  Level Oakland Oceanic (ODAPS)
09:15PM 49.5883 -167.5260 251° West 476 548 40,000  Level FlightAware Transoceanic
09:16PM 49.5450 -167.7184 251° West 476 548 40,000  Level FlightAware Transoceanic
09:17PM 49.5013 -167.9104 251° West 476 548 40,000  Level FlightAware Transoceanic
09:18PM 49.4573 -168.1021 250° West 476 548 40,000  Level FlightAware Transoceanic
09:19PM 49.4130 -168.2935 250° West 476 548 40,000  Level FlightAware Transoceanic
09:20PM 49.3977 -168.3786 250° West 474 545 40,000  Level FlightAware Transoceanic
09:21PM 49.3546 -168.5600 250° West 474 545 40,000  Level FlightAware Transoceanic
09:22PM 49.3112 -168.7411 250° West 474 545 40,000  Level FlightAware Transoceanic
09:23PM 49.2676 -168.9220 250° West 474 545 40,000  Level FlightAware Transoceanic
09:24PM 49.2237 -169.1024 249° West 474 545 40,000  Level FlightAware Transoceanic
09:25PM 49.1795 -169.2826 249° West 474 545 40,000  Level FlightAware Transoceanic
09:26PM 49.1351 -169.4624 249° West 474 545 40,000  Level FlightAware Transoceanic
09:27PM 49.0903 -169.6420 249° West 474 545 40,000  Level FlightAware Transoceanic
09:28PM 49.0453 -169.8211 249° West 474 545 40,000  Level FlightAware Transoceanic
09:28PM 49.0333 -169.9000 243° Southwest 449 517 40,000  Level Oakland Oceanic (ODAPS)
09:28PM 49.0000 -170.0000 257° West 457 526 40,000  Level Oakland Oceanic (ODAPS)
09:29PM 49.0000 -170.0000 257° West 474 545 40,000  Level FlightAware Transoceanic
09:30PM 48.9721 -170.1850 257° West 474 545 40,000  Level FlightAware Transoceanic
09:31PM 48.9439 -170.3699 257° West 474 545 40,000  Level FlightAware Transoceanic
09:32PM 48.9153 -170.5545 257° West 474 545 40,000  Level FlightAware Transoceanic
09:33PM 48.8865 -170.7389 257° West 474 545 40,000  Level FlightAware Transoceanic
09:34PM 48.8574 -170.9231 256° West 449 517 40,000  Level FlightAware Transoceanic
09:35PM 48.8248 -171.1272 256° West 457 526 40,000  Level FlightAware Transoceanic
09:36PM 48.7946 -171.3143 256° West 457 526 40,000  Level FlightAware Transoceanic
09:37PM 48.7640 -171.5011 256° West 457 526 40,000  Level FlightAware Transoceanic
09:38PM 48.7331 -171.6877 256° West 457 526 40,000  Level FlightAware Transoceanic
09:39PM 48.7020 -171.8741 256° West 457 526 40,000  Level FlightAware Transoceanic
09:40PM 48.6705 -172.0603 256° West 457 526 40,000  Level FlightAware Transoceanic
09:41PM 48.6387 -172.2462 255° West 457 526 40,000  Level FlightAware Transoceanic
09:42PM 48.6067 -172.4319 255° West 457 526 40,000  Level FlightAware Transoceanic
09:42PM 48.6000 -172.5000 255° West 458 527 40,000  Level Oakland Oceanic (ODAPS)
09:43PM 48.5743 -172.6174 255° West 457 526 40,000  Level FlightAware Transoceanic
09:44PM 48.5416 -172.8026 255° West 457 526 40,000  Level FlightAware Transoceanic
09:45PM 48.5087 -172.9876 255° West 457 526 40,000  Level FlightAware Transoceanic
09:46PM 48.4754 -173.1723 255° West 457 526 40,000  Level FlightAware Transoceanic
09:47PM 48.4419 -173.3569 255° West 457 526 40,000  Level FlightAware Transoceanic
09:48PM 48.3968 -173.6258 254° West 458 527 40,000  Level FlightAware Transoceanic
09:49PM 48.3619 -173.8125 254° West 458 527 40,000  Level FlightAware Transoceanic
09:50PM 48.3266 -173.9990 254° West 458 527 40,000  Level FlightAware Transoceanic
09:51PM 48.2911 -174.1853 254° West 458 527 40,000  Level FlightAware Transoceanic
09:52PM 48.2553 -174.3712 254° West 458 527 40,000  Level FlightAware Transoceanic
09:53PM 48.2191 -174.5569 254° West 458 527 40,000  Level FlightAware Transoceanic
09:54PM 48.1827 -174.7424 254° West 458 527 40,000  Level FlightAware Transoceanic
09:55PM 48.1460 -174.9276 253° West 458 527 40,000  Level FlightAware Transoceanic
09:56PM 48.1090 -175.1125 253° West 458 527 40,000  Level FlightAware Transoceanic
09:57PM 48.0716 -175.2971 253° West 458 527 40,000  Level FlightAware Transoceanic
09:58PM 48.0340 -175.4815 253° West 458 527 40,000  Level FlightAware Transoceanic
09:58PM 48.1167 -175.0167 253° West 444 511 40,000  Level Oakland Oceanic (ODAPS)
09:59PM 47.9961 -175.6656 253° West 458 527 40,000  Level FlightAware Transoceanic
10:00PM 47.9579 -175.8494 253° West 458 527 40,000  Level FlightAware Transoceanic
10:01PM 47.9194 -176.0330 253° West 458 527 40,000  Level FlightAware Transoceanic
10:02PM 47.8806 -176.2163 252° West 458 527 40,000  Level FlightAware Transoceanic
10:03PM 47.8415 -176.3993 252° West 458 527 40,000  Level FlightAware Transoceanic
10:04PM 47.8021 -176.5820 252° West 458 527 40,000  Level FlightAware Transoceanic
10:05PM 47.7933 -176.5858 252° West 444 511 40,000  Level FlightAware Transoceanic
10:06PM 47.7561 -176.7589 252° West 444 511 40,000  Level FlightAware Transoceanic
10:07PM 47.7186 -176.9318 252° West 444 511 40,000  Level FlightAware Transoceanic
10:08PM 47.6808 -177.1044 252° West 444 511 40,000  Level FlightAware Transoceanic
10:09PM 47.6428 -177.2768 252° West 444 511 40,000  Level FlightAware Transoceanic
10:09PM 47.6167 -177.4167 252° West 430 495 40,000  Level Oakland Oceanic (ODAPS)
10:10PM 47.6045 -177.4489 252° West 444 511 40,000  Level FlightAware Transoceanic
10:11PM 47.5660 -177.6208 252° West 444 511 40,000  Level FlightAware Transoceanic
10:12PM 47.5272 -177.7924 251° West 444 511 40,000  Level FlightAware Transoceanic
10:13PM 47.4882 -177.9638 251° West 444 511 40,000  Level FlightAware Transoceanic
10:14PM 47.4489 -178.1349 251° West 444 511 40,000  Level FlightAware Transoceanic
10:15PM 47.4093 -178.3058 251° West 444 511 40,000  Level FlightAware Transoceanic
10:16PM 47.3770 -178.4572 251° West 430 495 40,000  Level FlightAware Transoceanic
10:17PM 47.3361 -178.6297 251° West 430 495 40,000  Level FlightAware Transoceanic
10:18PM 47.2950 -178.8020 251° West 430 495 40,000  Level FlightAware Transoceanic
10:19PM 47.2536 -178.9739 250° West 430 495 40,000  Level FlightAware Transoceanic
10:20PM 47.2120 -179.1456 250° West 430 495 40,000  Level FlightAware Transoceanic
10:21PM 47.1701 -179.3170 250° West 430 495 40,000  Level FlightAware Transoceanic
10:22PM 47.1280 -179.4882 250° West 430 495 40,000  Level FlightAware Transoceanic
10:23PM 47.0856 -179.6591 250° West 430 495 40,000  Level FlightAware Transoceanic
10:23PM 47.0833 -179.6667 250° West 416 479 40,000  Level Oakland Oceanic (ODAPS)
10:24PM 47.0429 -179.8297 250° West 430 495 40,000  Level FlightAware Transoceanic
10:25PM 47.0000 -180.0000 258° West 430 495 40,000  Level FlightAware Transoceanic
10:25PM 47.0000 180.0000 258° West 412 474 40,000  Level Oakland Oceanic (ODAPS)
10:26PM 46.9748 179.8333 257° West 430 495 40,000  Level FlightAware Transoceanic
10:27PM 46.9494 179.6667 257° West 430 495 40,000  Level FlightAware Transoceanic
10:28PM 46.9237 179.5002 257° West 430 495 40,000  Level FlightAware Transoceanic
10:29PM 46.9225 179.4921 257° West 416 479 40,000  Level FlightAware Transoceanic
10:30PM 46.8961 179.3231 257° West 416 479 40,000  Level FlightAware Transoceanic
10:31PM 46.8695 179.1543 257° West 416 479 40,000  Level FlightAware Transoceanic
10:32PM 46.8478 179.0177 257° West 412 474 40,000  Level FlightAware Transoceanic
10:33PM 46.8217 178.8546 257° West 412 474 40,000  Level FlightAware Transoceanic
10:34PM 46.7952 178.6915 257° West 412 474 40,000  Level FlightAware Transoceanic
10:35PM 46.7686 178.5287 257° West 412 474 40,000  Level FlightAware Transoceanic
10:36PM 46.7417 178.3660 256° West 412 474 40,000  Level FlightAware Transoceanic
10:37PM 46.7146 178.2035 256° West 412 474 40,000 60 Level FlightAware Transoceanic
10:37PM 46.7000 178.0833 256° West 403 464 40,100  Climbing Oakland Oceanic (ODAPS)
10:38PM 46.6873 178.0412 256° West 412 474 40,000 -120 Descending FlightAware Transoceanic
10:39PM 46.6598 177.8790 256° West 412 474 40,000  Level FlightAware Transoceanic
10:40PM 46.6320 177.7169 256° West 412 474 40,000  Level FlightAware Transoceanic
10:41PM 46.6040 177.5551 256° West 412 474 40,000  Level FlightAware Transoceanic
10:42PM 46.5757 177.3934 256° West 412 474 40,000  Level FlightAware Transoceanic
10:43PM 46.5366 177.1441 255° West 403 464 40,100  Climbing FlightAware Transoceanic
10:44PM 46.5086 176.9881 255° West 403 464 40,100  Level FlightAware Transoceanic
10:45PM 46.4804 176.8323 255° West 403 464 40,100  Level FlightAware Transoceanic
10:46PM 46.4520 176.6767 255° West 403 464 40,100  Level FlightAware Transoceanic
10:47PM 46.4234 176.5212 255° West 403 464 40,100  Level FlightAware Transoceanic
10:48PM 46.3946 176.3658 255° West 403 464 40,100  Level FlightAware Transoceanic
10:49PM 46.3656 176.2107 255° West 403 464 40,100  Level FlightAware Transoceanic
10:50PM 46.3363 176.0557 255° West 403 464 40,100  Level FlightAware Transoceanic
10:51PM 46.3069 175.9008 255° West 403 464 40,100 600 Level FlightAware Transoceanic
10:51PM 46.3167 175.9667 255° West 393 452 41,000  Climbing Oakland Oceanic (ODAPS)
10:52PM 46.2772 175.7462 254° West 403 464 40,100 -600 Descending FlightAware Transoceanic
10:53PM 46.2474 175.5917 254° West 403 464 40,100  Level FlightAware Transoceanic
10:54PM 46.2173 175.4374 254° West 403 464 40,100  Level FlightAware Transoceanic
10:55PM 46.1870 175.2832 254° West 403 464 40,100  Level FlightAware Transoceanic
10:56PM 46.1565 175.1292 254° West 403 464 40,100 420 Level FlightAware Transoceanic
10:57PM 46.1392 175.0541 254° West 393 452 41,000 420 Climbing FlightAware Transoceanic
10:58PM 46.1089 174.9026 254° West 393 452 41,000  Level FlightAware Transoceanic
10:59PM 46.0784 174.7512 254° West 393 452 41,000  Level FlightAware Transoceanic
11:00PM 46.0477 174.6000 254° West 393 452 41,000  Level FlightAware Transoceanic
11:01PM 46.0168 174.4490 254° West 393 452 41,000  Level FlightAware Transoceanic
11:02PM 45.9858 174.2981 253° West 393 452 41,000  Level FlightAware Transoceanic
11:03PM 45.9545 174.1475 253° West 393 452 41,000  Level FlightAware Transoceanic
11:04PM 45.9230 173.9969 253° West 393 452 41,000  Level FlightAware Transoceanic
11:05PM 45.8913 173.8466 253° West 393 452 41,000  Level FlightAware Transoceanic
11:05PM 45.9000 173.8833 253° West 395 455 41,000  Level Oakland Oceanic (ODAPS)
11:06PM 45.8595 173.6965 253° West 393 452 41,000  Level FlightAware Transoceanic
11:07PM 45.8274 173.5465 253° West 393 452 41,000  Level FlightAware Transoceanic
11:08PM 45.7951 173.3966 253° West 393 452 41,000  Level FlightAware Transoceanic
11:09PM 45.7627 173.2470 253° West 393 452 41,000  Level FlightAware Transoceanic
11:10PM 45.7300 173.0975 253° West 393 452 41,000  Level FlightAware Transoceanic
11:11PM 45.7040 172.9763 252° West 395 455 41,000  Level FlightAware Transoceanic
11:12PM 45.6707 172.8257 252° West 395 455 41,000  Level FlightAware Transoceanic
11:13PM 45.6371 172.6753 252° West 395 455 41,000  Level FlightAware Transoceanic
11:14PM 45.6034 172.5251 252° West 395 455 41,000  Level FlightAware Transoceanic
11:15PM 45.5695 172.3751 252° West 395 455 41,000  Level FlightAware Transoceanic
11:16PM 45.5353 172.2253 252° West 395 455 41,000  Level FlightAware Transoceanic
11:17PM 45.5010 172.0756 252° West 395 455 41,000  Level FlightAware Transoceanic
11:18PM 45.4664 171.9262 252° West 395 455 41,000  Level FlightAware Transoceanic
11:19PM 45.4317 171.7769 252° West 395 455 41,000  Level FlightAware Transoceanic
11:19PM 45.4333 171.8000 252° West 403 464 41,000  Level Oakland Oceanic (ODAPS)
11:20PM 45.3968 171.6278 251° West 395 455 41,000  Level FlightAware Transoceanic
11:21PM 45.3617 171.4789 251° West 395 455 41,000  Level FlightAware Transoceanic
11:22PM 45.3264 171.3301 251° West 395 455 41,000  Level FlightAware Transoceanic
11:23PM 45.2909 171.1816 251° West 395 455 41,000  Level FlightAware Transoceanic
11:24PM 45.2552 171.0332 251° West 395 455 41,000  Level FlightAware Transoceanic
11:25PM 45.2202 170.8966 251° West 403 464 41,000  Level FlightAware Transoceanic
11:26PM 45.1840 170.7467 251° West 403 464 41,000  Level FlightAware Transoceanic
11:27PM 45.1476 170.5970 251° West 403 464 41,000  Level FlightAware Transoceanic
11:28PM 45.1110 170.4474 251° West 403 464 41,000  Level FlightAware Transoceanic
11:29PM 45.0742 170.2981 251° West 403 464 41,000  Level FlightAware Transoceanic
11:30PM 45.0372 170.1490 251° West 403 464 41,000  Level FlightAware Transoceanic
11:31PM 45.0000 170.0000 251° West 403 464 41,000  Level FlightAware Transoceanic
11:31PM 45.0000 170.0000 251° West 422 486 41,000  Level Oakland Oceanic (ODAPS)
11:32PM 44.9607 169.8387 251° West 403 464 41,000  Level FlightAware Transoceanic
11:33PM 44.9211 169.6777 251° West 403 464 41,000  Level FlightAware Transoceanic
11:34PM 44.8813 169.5169 251° West 403 464 41,000  Level FlightAware Transoceanic
11:35PM 44.8413 169.3563 251° West 403 464 41,000  Level FlightAware Transoceanic
11:36PM 44.8011 169.1959 250° West 403 464 41,000  Level FlightAware Transoceanic
11:36PM 44.8000 169.1833 250° West 423 487 41,000  Level Oakland Oceanic (ODAPS)
11:37PM 44.7679 169.0644 250° West 422 486 41,000  Level FlightAware Transoceanic
11:38PM 44.7285 168.9093 250° West 422 486 41,000  Level FlightAware Transoceanic
11:39PM 44.6888 168.7543 250° West 422 486 41,000  Level FlightAware Transoceanic
11:40PM 44.6490 168.5995 250° West 422 486 41,000  Level FlightAware Transoceanic
11:41PM 44.6089 168.4450 250° West 422 486 41,000  Level FlightAware Transoceanic
11:42PM 44.5620 168.2579 250° West 423 487 41,000  Level FlightAware Transoceanic
11:43PM 44.5216 168.1044 250° West 423 487 41,000  Level FlightAware Transoceanic
11:44PM 44.4810 167.9511 250° West 423 487 41,000  Level FlightAware Transoceanic
11:45PM 44.4402 167.7980 249° West 423 487 41,000  Level FlightAware Transoceanic
11:46PM 44.3992 167.6452 249° West 423 487 41,000  Level FlightAware Transoceanic
11:46PM 44.3833 167.6000 249° West 419 482 41,000  Level Oakland Oceanic (ODAPS)
11:47PM 44.3580 167.4925 249° West 423 487 41,000  Level FlightAware Transoceanic
11:48PM 44.3166 167.3401 249° West 423 487 41,000  Level FlightAware Transoceanic
11:49PM 44.2749 167.1879 249° West 423 487 41,000  Level FlightAware Transoceanic
11:50PM 44.2331 167.0359 249° West 423 487 41,000  Level FlightAware Transoceanic
11:51PM 44.1911 166.8841 249° West 423 487 41,000  Level FlightAware Transoceanic
11:52PM 44.1489 166.7325 249° West 423 487 41,000  Level FlightAware Transoceanic
11:53PM 44.1345 166.6930 249° West 419 482 41,000  Level FlightAware Transoceanic
11:54PM 44.0924 166.5425 249° West 419 482 41,000  Level FlightAware Transoceanic
11:55PM 44.0500 166.3923 249° West 419 482 41,000  Level FlightAware Transoceanic
11:56PM 44.0075 166.2423 248° West 419 482 41,000  Level FlightAware Transoceanic
11:57PM 43.9647 166.0926 248° West 419 482 41,000  Level FlightAware Transoceanic
11:58PM 43.9218 165.9430 248° West 419 482 41,000  Level FlightAware Transoceanic
11:59PM 43.8787 165.7937 248° West 419 482 41,000  Level FlightAware Transoceanic
12:00AM 43.8353 165.6445 248° West 419 482 41,000  Level FlightAware Transoceanic
12:00AM 43.8167 165.5500 248° West 417 480 41,000  Level Oakland Oceanic (ODAPS)
12:01AM 43.7918 165.4956 248° West 419 482 41,000  Level FlightAware Transoceanic
12:02AM 43.7481 165.3469 248° West 419 482 41,000  Level FlightAware Transoceanic
12:04AM 43.6328 164.9589 248° West 419 482 41,000  Level FlightAware Transoceanic
12:06AM 43.5713 164.7543 247° West 419 482 41,000  Level FlightAware Transoceanic
12:07AM 43.5479 164.6520 247° West 417 480 41,000  Level FlightAware Transoceanic
12:08AM 43.5024 164.5031 247° West 417 480 41,000  Level FlightAware Transoceanic
12:09AM 43.4568 164.3544 247° West 417 480 41,000  Level FlightAware Transoceanic
12:10AM 43.4109 164.2060 247° West 417 480 41,000  Level FlightAware Transoceanic
12:11AM 43.3648 164.0578 247° West 417 480 41,000  Level FlightAware Transoceanic
12:12AM 43.3186 163.9098 247° West 417 480 41,000  Level FlightAware Transoceanic
12:13AM 43.2722 163.7621 247° West 417 480 41,000  Level FlightAware Transoceanic
12:14AM 43.2256 163.6145 246° West 417 480 41,000  Level FlightAware Transoceanic
12:15AM 43.1787 163.4672 246° West 417 480 41,000  Level FlightAware Transoceanic
12:16AM 43.1317 163.3201 246° West 417 480 41,000  Level FlightAware Transoceanic
12:17AM 43.0845 163.1733 246° West 417 480 41,000  Level FlightAware Transoceanic
12:18AM 43.0372 163.0267 246° West 417 480 41,000  Level FlightAware Transoceanic
12:19AM 42.9896 162.8802 246° West 417 480 41,000  Level FlightAware Transoceanic
12:20AM 42.9418 162.7341 246° West 417 480 41,000  Level FlightAware Transoceanic
12:21AM 42.8939 162.5881 246° West 417 480 41,000  Level FlightAware Transoceanic
12:22AM 42.8458 162.4424 246° West 417 480 41,000  Level FlightAware Transoceanic
12:23AM 42.7975 162.2969 246° West 417 480 41,000  Level FlightAware Transoceanic
12:24AM 42.7490 162.1516 245° Southwest 417 480 41,000  Level FlightAware Transoceanic
12:25AM 42.7003 162.0066 245° Southwest 417 480 41,000  Level FlightAware Transoceanic
12:26AM 42.6515 161.8618 245° Southwest 417 480 41,000  Level FlightAware Transoceanic
12:27AM 42.6024 161.7172 245° Southwest 417 480 41,000  Level FlightAware Transoceanic
12:28AM 42.5532 161.5728 245° Southwest 417 480 41,000  Level FlightAware Transoceanic
12:29AM 42.5038 161.4287 245° Southwest 417 480 41,000  Level FlightAware Transoceanic
12:30AM 42.4542 161.2848 245° Southwest 417 480 41,000  Level FlightAware Transoceanic
12:31AM 42.4045 161.1412 245° Southwest 417 480 41,000  Level FlightAware Transoceanic
12:32AM 42.3545 160.9977 245° Southwest 417 480 41,000  Level FlightAware Transoceanic
12:33AM 42.3044 160.8545 245° Southwest 417 480 41,000  Level FlightAware Transoceanic
12:34AM 42.2541 160.7115 245° Southwest 417 480 41,000  Level FlightAware Transoceanic
12:35AM 42.2037 160.5688 244° Southwest 417 480 41,000  Level FlightAware Transoceanic
12:36AM 42.1530 160.4262 244° Southwest 417 480 41,000  Level FlightAware Transoceanic
12:37AM 42.1022 160.2839 244° Southwest 417 480 41,000  Level FlightAware Transoceanic
12:38AM 42.0512 160.1418 244° Southwest 417 480 41,000  Level FlightAware Transoceanic
12:39AM 42.0000 160.0000 246° West 417 480 41,000  Level FlightAware Transoceanic
12:40AM 41.9491 159.8446 246° West 417 480 41,000  Level FlightAware Transoceanic
12:41AM 41.8981 159.6895 246° West 417 480 41,000  Level FlightAware Transoceanic
12:42AM 41.8468 159.5346 246° West 417 480 41,000  Level FlightAware Transoceanic
12:43AM 41.7953 159.3799 246° West 417 480 41,000  Level FlightAware Transoceanic
12:44AM 41.7436 159.2255 246° West 417 480 41,000  Level FlightAware Transoceanic
12:45AM 41.6917 159.0714 246° West 417 480 41,000  Level FlightAware Transoceanic
12:46AM 41.6396 158.9175 246° West 417 480 41,000  Level FlightAware Transoceanic
12:47AM 41.5873 158.7638 245° Southwest 417 480 41,000  Level FlightAware Transoceanic
12:48AM 41.5348 158.6104 245° Southwest 417 480 41,000  Level FlightAware Transoceanic
12:49AM 41.4820 158.4573 245° Southwest 417 480 41,000  Level FlightAware Transoceanic
12:50AM 41.4291 158.3044 245° Southwest 417 480 41,000  Level FlightAware Transoceanic
12:51AM 41.3760 158.1517 245° Southwest 417 480 41,000  Level FlightAware Transoceanic
12:52AM 41.3227 157.9993 245° Southwest 417 480 41,000  Level FlightAware Transoceanic
12:53AM 41.2691 157.8472 245° Southwest 417 480 41,000  Level FlightAware Transoceanic
12:54AM 41.2154 157.6953 245° Southwest 417 480 41,000  Level FlightAware Transoceanic
12:55AM 41.1615 157.5436 245° Southwest 417 480 41,000  Level FlightAware Transoceanic
12:56AM 41.1074 157.3922 245° Southwest 417 480 41,000  Level FlightAware Transoceanic
12:57AM 41.0530 157.2410 244° Southwest 417 480 41,000  Level FlightAware Transoceanic
12:58AM 40.9985 157.0901 244° Southwest 417 480 41,000  Level FlightAware Transoceanic
12:59AM 40.9438 156.9395 244° Southwest 417 480 41,000  Level FlightAware Transoceanic
01:00AM 40.8889 156.7891 244° Southwest 417 480 41,000  Level FlightAware Transoceanic
01:01AM 40.8338 156.6389 244° Southwest 417 480 41,000  Level FlightAware Transoceanic
01:02AM 40.7785 156.4890 244° Southwest 417 480 41,000  Level FlightAware Transoceanic
01:03AM 40.7230 156.3394 244° Southwest 417 480 41,000  Level FlightAware Transoceanic
01:04AM 40.6673 156.1900 244° Southwest 417 480 41,000  Level FlightAware Transoceanic
01:05AM 40.6114 156.0408 244° Southwest 417 480 41,000  Level FlightAware Transoceanic
01:06AM 40.5554 155.8919 244° Southwest 417 480 41,000  Level FlightAware Transoceanic
01:07AM 40.4991 155.7432 243° Southwest 417 480 41,000  Level FlightAware Transoceanic
01:08AM 40.4426 155.5948 243° Southwest 417 480 41,000  Level FlightAware Transoceanic
01:09AM 40.3860 155.4467 243° Southwest 417 480 41,000  Level FlightAware Transoceanic
01:10AM 40.3292 155.2988 243° Southwest 417 480 41,000  Level FlightAware Transoceanic
01:11AM 40.2721 155.1511 243° Southwest 417 480 41,000  Level FlightAware Transoceanic
01:12AM 40.2149 155.0037 243° Southwest 417 480 41,000  Level FlightAware Transoceanic
01:13AM 40.1575 154.8565 243° Southwest 417 480 41,000  Level FlightAware Transoceanic
01:14AM 40.1000 154.7096 243° Southwest 417 480 41,000  Level FlightAware Transoceanic
01:15AM 40.0422 154.5630 243° Southwest 417 480 41,000  Level FlightAware Transoceanic
01:16AM 39.9842 154.4165 243° Southwest 417 480 41,000  Level FlightAware Transoceanic
01:17AM 39.9261 154.2704 243° Southwest 417 480 41,000  Level FlightAware Transoceanic
01:18AM 39.8678 154.1245 242° Southwest 417 480 41,000  Level FlightAware Transoceanic
01:19AM 39.8093 153.9788 242° Southwest 417 480 41,000  Level FlightAware Transoceanic
01:20AM 39.7506 153.8334 242° Southwest 417 480 41,000  Level FlightAware Transoceanic
01:21AM 39.6918 153.6882 242° Southwest 417 480 41,000  Level FlightAware Transoceanic
01:22AM 39.6327 153.5433 242° Southwest 417 480 41,000  Level FlightAware Transoceanic
01:23AM 39.5735 153.3986 242° Southwest 417 480 41,000  Level FlightAware Transoceanic
01:24AM 39.5141 153.2542 242° Southwest 417 480 41,000  Level FlightAware Transoceanic
01:25AM 39.4545 153.1100 242° Southwest 417 480 41,000  Level FlightAware Transoceanic
01:26AM 39.3948 152.9660 242° Southwest 417 480 41,000  Level FlightAware Transoceanic
01:27AM 39.3348 152.8224 242° Southwest 417 480 41,000  Level FlightAware Transoceanic
01:28AM 39.2747 152.6789 242° Southwest 417 480 41,000  Level FlightAware Transoceanic
01:29AM 39.2144 152.5357 241° Southwest 417 480 41,000  Level FlightAware Transoceanic
01:30AM 39.1540 152.3928 241° Southwest 417 480 41,000  Level FlightAware Transoceanic
01:31AM 39.0933 152.2501 241° Southwest 417 480 41,000  Level FlightAware Transoceanic
01:32AM 39.0325 152.1076 241° Southwest 417 480 41,000  Level FlightAware Transoceanic
01:33AM 38.9715 151.9654 241° Southwest 417 480 41,000  Level FlightAware Transoceanic
01:34AM 38.9104 151.8234 241° Southwest 417 480 41,000  Level FlightAware Transoceanic
01:35AM 38.8491 151.6817 241° Southwest 417 480 41,000  Level FlightAware Transoceanic
01:36AM 38.7876 151.5402 241° Southwest 417 480 41,000  Level FlightAware Transoceanic
01:37AM 38.7259 151.3990 241° Southwest 417 480 41,000  Level FlightAware Transoceanic
01:38AM 38.6641 151.2580 241° Southwest 417 480 41,000  Level FlightAware Transoceanic
01:39AM 38.6021 151.1172 241° Southwest 417 480 41,000  Level FlightAware Transoceanic
01:40AM 38.5399 150.9767 240° Southwest 417 480 41,000  Level FlightAware Transoceanic
01:41AM 38.4775 150.8365 240° Southwest 417 480 41,000  Level FlightAware Transoceanic
01:42AM 38.4150 150.6965 240° Southwest 417 480 41,000  Level FlightAware Transoceanic
01:43AM 38.3523 150.5567 240° Southwest 417 480 41,000  Level FlightAware Transoceanic
01:44AM 38.2895 150.4171 240° Southwest 417 480 41,000  Level FlightAware Transoceanic
01:45AM 38.2265 150.2779 240° Southwest 417 480 41,000  Level FlightAware Transoceanic
01:46AM 38.1633 150.1388 240° Southwest 417 480 41,000  Level FlightAware Transoceanic
01:47AM 38.1019 150.0042 240° Southwest  Level FlightAware Approximate
01:48AM 38.0402 149.8699 240° Southwest  Level FlightAware Approximate
01:49AM 38.0971 149.8542 269° West  Level FlightAware Approximate
01:50AM 38.0939 149.6987 269° West  Level FlightAware Approximate
01:51AM 38.0904 149.5432 268° West  Level FlightAware Approximate
01:52AM 38.0868 149.3878 268° West  Level FlightAware Approximate
01:53AM 38.0785 149.2334 250° West  Level FlightAware Approximate
01:54AM 38.0356 149.0878 250° West  Level FlightAware Approximate
01:55AM 37.9925 148.9424 249° West  Level FlightAware Approximate
01:56AM 37.9492 148.7972 249° West  Level FlightAware Approximate
01:57AM 37.9058 148.6521 249° West  Level FlightAware Approximate
01:58AM 37.8622 148.5072 249° West  Level FlightAware Approximate
01:59AM 37.8184 148.3624 249° West  Level FlightAware Approximate
02:00AM 37.7744 148.2178 249° West  Level FlightAware Approximate
02:01AM 37.7303 148.0734 249° West  Level FlightAware Approximate
02:02AM 37.6860 147.9292 249° West  Level FlightAware Approximate
02:03AM 37.6241 147.7976 232° Southwest  Level FlightAware Approximate
02:04AM 37.5488 147.6758 232° Southwest  Level FlightAware Approximate
02:05AM 37.4734 147.5542 232° Southwest  Level FlightAware Approximate
02:06AM 37.3979 147.4329 232° Southwest  Level FlightAware Approximate
02:07AM 37.3223 147.3119 232° Southwest  Level FlightAware Approximate
02:08AM 37.2465 147.1910 232° Southwest  Level FlightAware Approximate
02:09AM 37.1706 147.0704 232° Southwest  Level FlightAware Approximate
02:10AM 37.0946 146.9501 232° Southwest  Level FlightAware Approximate
02:11AM 37.0184 146.8300 232° Southwest  Level FlightAware Approximate
02:12AM 36.9422 146.7101 232° Southwest  Level FlightAware Approximate
02:13AM 36.8658 146.5905 231° Southwest  Level FlightAware Approximate
02:14AM 36.7893 146.4711 231° Southwest  Level FlightAware Approximate
02:15AM 36.7127 146.3520 231° Southwest  Level FlightAware Approximate
02:16AM 36.6358 146.2329 231° Southwest  Level FlightAware Approximate
02:17AM 36.5589 146.1141 231° Southwest  Level FlightAware Approximate
02:18AM 36.4818 145.9955 231° Southwest  Level FlightAware Approximate
02:19AM 36.4046 145.8771 231° Southwest  Level FlightAware Approximate
02:20AM 36.3273 145.7590 231° Southwest  Level FlightAware Approximate
02:21AM 36.2511 145.6399 234° Southwest  Level FlightAware Approximate
02:22AM 36.1793 145.5168 234° Southwest  Level FlightAware Approximate
02:23AM 36.1359 145.3784 259° West  Level FlightAware Approximate
02:24AM 36.1119 145.2296 259° West  Level FlightAware Approximate
02:25AM 36.0878 145.0808 259° West  Level FlightAware Approximate
02:26AM 36.0635 144.9322 259° West  Level FlightAware Approximate
02:26AM 36.1150 144.8760 259° West 451 519 41,000  Level FlightAware
02:26AM 36.0920 144.8100 247° West 455 524 41,000  Level FlightAware
02:27AM 36.0520 144.6910 247° West 454 522 41,000  Level FlightAware
02:27AM 36.0270 144.6060 250° West 455 524 41,000 -120 Level FlightAware
02:28AM 36.0150 144.5320 259° West 457 526 40,900 -1,020 Descending FlightAware
02:29AM 35.9970 144.4280 258° West 463 533 39,800 -900 Descending FlightAware
02:29AM 35.9820 144.3470 257° West 463 533 39,800  Level FlightAware
02:30AM 35.9680 144.2680 258° West 463 533 39,800  Level FlightAware
02:30AM 35.9530 144.1890 257° West 463 533 39,800  Level FlightAware
02:31AM 35.9380 144.1100 257° West 463 533 39,800 -3,540 Level FlightAware
02:32AM 35.9090 143.9540 257° West 481 554 35,700 -3,420 Descending FlightAware
02:32AM 35.8940 143.8670 258° West 481 554 35,700 -1,320 Level FlightAware
02:33AM 35.8720 143.7640 255° West 483 556 34,200 -1,320 Descending FlightAware
02:34AM 35.8510 143.6600 256° West 487 560 34,100 -120 Descending FlightAware
02:34AM 35.8350 143.5780 256° West 487 560 34,100  Level FlightAware
02:35AM 35.8180 143.4950 256° West 487 560 34,100 -1,980 Level FlightAware
02:35AM 35.7920 143.3690 256° West 469 540 31,800 -1,800 Descending FlightAware
02:36AM 35.7710 143.2570 257° West 462 532 31,600 -600 Descending FlightAware
02:37AM 35.7560 143.1500 260° West 460 529 30,900 -600 Descending FlightAware
02:37AM 35.7440 143.0710 259° West 460 529 30,900  Level FlightAware
02:38AM 35.7330 142.9920 260° West 460 529 30,900  Level FlightAware
02:39AM 35.7220 142.9130 260° West 460 529 30,900 -2,580 Level FlightAware
02:39AM 35.7060 142.7690 262° West 27,300 -3,840 Descending FlightAware
02:40AM 35.6940 142.6820 260° West 413 475 26,200 -900 Descending FlightAware
02:40AM 35.6840 142.6050 261° West 413 475 26,200  Level FlightAware
02:41AM 35.6750 142.5320 261° West 413 475 26,200 -2,280 Level FlightAware
02:43AM 35.6450 142.3210 260° West 20,800 -2,940 Descending FlightAware
02:43AM 35.6360 142.2590 260° West 243 280 20,000 -1,440 Descending FlightAware
02:44AM 35.6240 142.1660 261° West 349 402 18,900 -1,560 Descending FlightAware
02:45AM 35.6130 142.0880 260° West 342 394 17,900 -1,560 Descending FlightAware
02:45AM 35.6030 142.0210 260° West 337 388 17,000 -1,560 Descending FlightAware
02:46AM 35.5950 141.9640 260° West 334 384 16,200 -840 Descending FlightAware
02:46AM 35.5900 141.8820 266° West 334 384 16,000 -180 Descending FlightAware
02:47AM 35.5860 141.8100 266° West 333 383 16,000  Level FlightAware
02:48AM 35.5810 141.7350 265° West 334 384 16,000  Level FlightAware
02:48AM 35.5770 141.6620 266° West 334 384 16,000  Level FlightAware
02:49AM 35.5730 141.5880 266° West 333 383 16,000  Level FlightAware
02:50AM 35.5690 141.5210 266° West 333 383 16,000  Level FlightAware
02:50AM 35.5830 141.4580 285° West 336 387 16,000 -600 Level FlightAware
02:51AM 35.6140 141.3890 299° West 338 389 15,300 -1,320 Descending FlightAware
02:51AM 35.6400 141.3320 299° West 334 384 14,400 -1,080 Descending FlightAware
02:52AM 35.6710 141.2630 299° West 331 381 14,000 -420 Descending FlightAware
02:53AM 35.6970 141.2050 299° West 332 382 13,900 -780 Descending FlightAware
02:53AM 35.7230 141.1480 299° West 322 371 13,100 -1,740 Descending FlightAware
02:54AM 35.7470 141.0940 299° West 314 361 12,000 -2,040 Descending FlightAware
02:54AM 35.7700 141.0430 299° West 305 351 10,800 -2,640 Descending FlightAware
02:55AM 35.7850 141.0090 299° West 307 353 9,500 -2,940 Descending FlightAware
02:55AM 35.7960 140.9830 298° West 314 361 9,000 -840 Descending FlightAware
02:56AM 35.8160 140.9400 300° West 289 333 8,900 -240 Descending FlightAware
02:56AM 35.8280 140.8970 289° West 267 307 8,800 -420 Descending FlightAware
02:56AM 35.8230 140.8690 258° West 264 304 8,600 -780 Descending FlightAware
02:57AM 35.8160 140.8570 234° Southwest 263 303 8,400 -960 Descending FlightAware
02:57AM 35.8010 140.8440 215° Southwest 263 303 8,200 -900 Descending FlightAware
02:57AM 35.7930 140.8400 202° Southwest 256 295 8,100 -1,020 Descending FlightAware
02:57AM 35.7590 140.8250 200° South 257 296 7,600 -1,140 Descending FlightAware
02:58AM 35.7350 140.8150 199° South 259 298 7,200 -900 Descending FlightAware
02:58AM 35.7140 140.8060 199° South 260 299 7,000 -900 Descending FlightAware
02:58AM 35.6890 140.7950 200° South 271 312 6,600 -1,080 Descending FlightAware
02:59AM 35.6580 140.7820 199° South 272 313 6,200 -1,140 Descending FlightAware
02:59AM 35.6140 140.7620 200° South 260 299 5,400 -840 Descending FlightAware
03:00AM 35.5830 140.7490 199° South 259 298 5,300 -960 Descending FlightAware
03:01AM 35.5080 140.7170 199° South 205 236 3,900 -1,020 Descending FlightAware
03:01AM 35.4920 140.7060 209° Southwest 198 228 3,900  Level FlightAware
03:02AM 35.4820 140.6940 224° Southwest 193 222 3,900  Level FlightAware
03:02AM 35.4720 140.6800 229° Southwest 198 228 3,900  Level FlightAware
03:02AM 35.4630 140.6610 240° Southwest 193 222 3,900  Level FlightAware
03:02AM 35.4620 140.6550 258° West 186 214 3,900  Level FlightAware
03:03AM 35.4670 140.6320 285° West 181 208 3,900  Level FlightAware
03:03AM 35.4770 140.6120 302° West 180 207 3,900  Level FlightAware
03:03AM 35.4860 140.5930 300° West 181 208 3,900  Level FlightAware
03:04AM 35.4940 140.5750 299° West 182 209 3,900  Level FlightAware
03:04AM 35.4990 140.5690 316° Northwest 184 212 3,900  Level FlightAware
03:04AM 35.5040 140.5630 316° Northwest 184 212 3,900  Level FlightAware
03:04AM 35.5190 140.5520 329° Northwest 186 214 3,900  Level FlightAware
03:05AM 35.5350 140.5410 331° Northwest 184 212 3,900  Level FlightAware
03:05AM 35.5500 140.5300 329° Northwest 182 209 3,900  Level FlightAware
03:05AM 35.5650 140.5190 329° Northwest 173 199 3,900 -300 Level FlightAware
03:06AM 35.5800 140.5080 329° Northwest 177 204 3,700 -900 Descending FlightAware
03:06AM 35.5950 140.4980 332° Northwest 173 199 3,300 -1,080 Descending FlightAware
03:07AM 35.6110 140.4860 329° Northwest 171 197 2,900 -900 Descending FlightAware
03:07AM 35.6220 140.4780 329° Northwest 170 196 2,700 -780 Descending FlightAware
03:07AM 35.6380 140.4660 329° Northwest 169 194 2,400 -840 Descending FlightAware
03:07AM 35.6510 140.4570 331° Northwest 168 193 2,100 -960 Descending FlightAware
03:08AM 35.6630 140.4480 329° Northwest 168 193 1,800 -900 Descending FlightAware
03:08AM 35.6780 140.4380 332° Northwest 160 184 1,500 -840 Descending FlightAware
03:09AM 35.6920 140.4270 327° Northwest 143 165 1,200 -840 Descending FlightAware
03:09AM 35.7040 140.4190 332° Northwest 142 163 900 -840 Descending FlightAware
03:09AM 35.7130 140.4130 332° Northwest 142 163 700 -780 Descending FlightAware
03:10AM 35.7270 140.4030 330° Northwest 144 166 400 -720 Descending FlightAware
03:10AM 35.7390 140.3940 329° Northwest 145 167 200 -360 Descending FlightAware
03:10AM 35.7540 140.3830 329° Northwest 145 167 100 -240 Descending FlightAware
03:13AM 35.7500 140.3833 253° West  Level FlightAware Approximate
03:14AM 35.7647 140.3864 253° West  Level Estimated
03:15AM 35.7647 140.3864 253° West  Level Estimated
03:16AM 35.7647 140.3864 253° West  Level Estimated
03:17AM 35.7647 140.3864 253° West  Level Estimated